sensor_id;sensor_type;location;lat;lon;timestamp;P1;durP1;ratioP1;P2;durP2;ratioP2
58768;SDS011;44536;47.474;19.056;2023-02-18T00:00:45;15.13;;;7.15;;
58768;SDS011;44536;47.474;19.056;2023-02-18T00:03:48;15.07;;;7.78;;
58768;SDS011;44536;47.474;19.056;2023-02-18T00:06:51;18.03;;;7.60;;
58768;SDS011;44536;47.474;19.056;2023-02-18T00:09:53;11.70;;;6.60;;
58768;SDS011;44536;47.474;19.056;2023-02-18T00:12:55;11.32;;;6.18;;
58768;SDS011;44536;47.474;19.056;2023-02-18T00:16:05;11.25;;;5.85;;
58768;SDS011;44536;47.474;19.056;2023-02-18T00:19:13;11.68;;;5.82;;
58768;SDS011;44536;47.474;19.056;2023-02-18T00:22:17;14.13;;;5.50;;
58768;SDS011;44536;47.474;19.056;2023-02-18T00:25:19;9.82;;;4.12;;
58768;SDS011;44536;47.474;19.056;2023-02-18T00:28:22;9.52;;;4.43;;
58768;SDS011;44536;47.474;19.056;2023-02-18T00:31:28;9.48;;;4.90;;
58768;SDS011;44536;47.474;19.056;2023-02-18T00:34:34;8.88;;;3.92;;
58768;SDS011;44536;47.474;19.056;2023-02-18T00:37:37;11.23;;;3.42;;
58768;SDS011;44536;47.474;19.056;2023-02-18T00:40:39;9.48;;;3.95;;
58768;SDS011;44536;47.474;19.056;2023-02-18T00:43:43;6.62;;;2.90;;
58768;SDS011;44536;47.474;19.056;2023-02-18T00:46:45;7.57;;;3.65;;
58768;SDS011;44536;47.474;19.056;2023-02-18T00:49:49;7.30;;;3.35;;
58768;SDS011;44536;47.474;19.056;2023-02-18T00:52:51;6.47;;;2.70;;
58768;SDS011;44536;47.474;19.056;2023-02-18T00:55:54;9.43;;;3.40;;
58768;SDS011;44536;47.474;19.056;2023-02-18T00:58:57;8.07;;;3.33;;
58768;SDS011;44536;47.474;19.056;2023-02-18T01:01:59;6.30;;;2.70;;
58768;SDS011;44536;47.474;19.056;2023-02-18T01:05:02;7.00;;;2.55;;
58768;SDS011;44536;47.474;19.056;2023-02-18T01:08:05;5.23;;;2.20;;
58768;SDS011;44536;47.474;19.056;2023-02-18T01:11:09;5.82;;;2.47;;
58768;SDS011;44536;47.474;19.056;2023-02-18T01:14:12;5.65;;;2.00;;
58768;SDS011;44536;47.474;19.056;2023-02-18T01:17:14;4.05;;;1.87;;
58768;SDS011;44536;47.474;19.056;2023-02-18T01:20:17;5.82;;;2.05;;
58768;SDS011;44536;47.474;19.056;2023-02-18T01:23:20;4.40;;;1.77;;
58768;SDS011;44536;47.474;19.056;2023-02-18T01:26:23;4.03;;;1.60;;
58768;SDS011;44536;47.474;19.056;2023-02-18T01:29:26;3.30;;;1.20;;
58768;SDS011;44536;47.474;19.056;2023-02-18T01:32:29;4.30;;;1.37;;
58768;SDS011;44536;47.474;19.056;2023-02-18T01:35:31;4.25;;;1.70;;
58768;SDS011;44536;47.474;19.056;2023-02-18T01:38:34;4.15;;;1.40;;
58768;SDS011;44536;47.474;19.056;2023-02-18T01:41:37;6.77;;;2.07;;
58768;SDS011;44536;47.474;19.056;2023-02-18T01:44:39;2.35;;;0.98;;
58768;SDS011;44536;47.474;19.056;2023-02-18T01:47:42;2.80;;;1.17;;
58768;SDS011;44536;47.474;19.056;2023-02-18T01:50:56;2.87;;;1.33;;
58768;SDS011;44536;47.474;19.056;2023-02-18T01:57:35;2.15;;;1.00;;
58768;SDS011;44536;47.474;19.056;2023-02-18T02:00:39;3.25;;;0.93;;
58768;SDS011;44536;47.474;19.056;2023-02-18T02:03:42;2.40;;;0.95;;
58768;SDS011;44536;47.474;19.056;2023-02-18T02:06:44;2.80;;;1.35;;
58768;SDS011;44536;47.474;19.056;2023-02-18T02:09:47;1.98;;;0.80;;
58768;SDS011;44536;47.474;19.056;2023-02-18T02:16:11;2.72;;;0.98;;
58768;SDS011;44536;47.474;19.056;2023-02-18T02:32:55;3.40;;;0.90;;
58768;SDS011;44536;47.474;19.056;2023-02-18T02:45:40;4.18;;;1.05;;
58768;SDS011;44536;47.474;19.056;2023-02-18T02:52:03;1.35;;;0.62;;
58768;SDS011;44536;47.474;19.056;2023-02-18T02:55:10;3.08;;;1.02;;
58768;SDS011;44536;47.474;19.056;2023-02-18T02:58:15;1.48;;;0.68;;
58768;SDS011;44536;47.474;19.056;2023-02-18T03:01:19;2.12;;;0.98;;
58768;SDS011;44536;47.474;19.056;2023-02-18T03:17:24;1.55;;;0.80;;
58768;SDS011;44536;47.474;19.056;2023-02-18T03:20:35;2.35;;;1.02;;
58768;SDS011;44536;47.474;19.056;2023-02-18T03:23:51;2.05;;;0.90;;
58768;SDS011;44536;47.474;19.056;2023-02-18T03:27:04;4.18;;;1.08;;
58768;SDS011;44536;47.474;19.056;2023-02-18T03:30:15;2.08;;;1.02;;
58768;SDS011;44536;47.474;19.056;2023-02-18T03:33:27;3.47;;;1.37;;
58768;SDS011;44536;47.474;19.056;2023-02-18T03:36:44;3.85;;;0.93;;
58768;SDS011;44536;47.474;19.056;2023-02-18T03:39:47;1.73;;;0.80;;
58768;SDS011;44536;47.474;19.056;2023-02-18T03:42:55;2.53;;;1.02;;
58768;SDS011;44536;47.474;19.056;2023-02-18T03:45:59;1.35;;;0.68;;
58768;SDS011;44536;47.474;19.056;2023-02-18T03:49:02;2.20;;;0.90;;
58768;SDS011;44536;47.474;19.056;2023-02-18T03:52:05;1.15;;;0.65;;
58768;SDS011;44536;47.474;19.056;2023-02-18T03:55:08;1.83;;;0.70;;
58768;SDS011;44536;47.474;19.056;2023-02-18T03:58:11;2.40;;;0.80;;
58768;SDS011;44536;47.474;19.056;2023-02-18T04:01:13;2.45;;;1.10;;
58768;SDS011;44536;47.474;19.056;2023-02-18T04:04:16;2.20;;;0.90;;
58768;SDS011;44536;47.474;19.056;2023-02-18T04:07:18;2.87;;;1.00;;
58768;SDS011;44536;47.474;19.056;2023-02-18T04:10:21;2.25;;;1.05;;
58768;SDS011;44536;47.474;19.056;2023-02-18T04:13:23;2.10;;;0.70;;
58768;SDS011;44536;47.474;19.056;2023-02-18T04:16:26;0.93;;;0.60;;
58768;SDS011;44536;47.474;19.056;2023-02-18T04:19:28;2.58;;;1.05;;
58768;SDS011;44536;47.474;19.056;2023-02-18T04:22:31;3.62;;;1.12;;
58768;SDS011;44536;47.474;19.056;2023-02-18T04:25:33;1.85;;;0.80;;
58768;SDS011;44536;47.474;19.056;2023-02-18T04:28:37;2.67;;;0.73;;
58768;SDS011;44536;47.474;19.056;2023-02-18T04:31:39;2.42;;;0.98;;
58768;SDS011;44536;47.474;19.056;2023-02-18T04:34:42;2.20;;;0.77;;
58768;SDS011;44536;47.474;19.056;2023-02-18T04:37:44;2.90;;;1.10;;
58768;SDS011;44536;47.474;19.056;2023-02-18T04:40:47;4.00;;;0.83;;
58768;SDS011;44536;47.474;19.056;2023-02-18T04:43:49;2.37;;;0.90;;
58768;SDS011;44536;47.474;19.056;2023-02-18T04:46:52;2.37;;;1.20;;
58768;SDS011;44536;47.474;19.056;2023-02-18T04:49:54;3.15;;;1.50;;
58768;SDS011;44536;47.474;19.056;2023-02-18T04:52:56;2.22;;;0.90;;
58768;SDS011;44536;47.474;19.056;2023-02-18T04:55:58;2.25;;;1.02;;
58768;SDS011;44536;47.474;19.056;2023-02-18T04:59:01;3.17;;;1.35;;
58768;SDS011;44536;47.474;19.056;2023-02-18T05:02:03;3.42;;;1.10;;
58768;SDS011;44536;47.474;19.056;2023-02-18T05:05:06;3.17;;;0.98;;
58768;SDS011;44536;47.474;19.056;2023-02-18T05:08:08;2.60;;;1.10;;
58768;SDS011;44536;47.474;19.056;2023-02-18T05:11:11;3.22;;;1.25;;
58768;SDS011;44536;47.474;19.056;2023-02-18T05:14:13;2.83;;;1.17;;
58768;SDS011;44536;47.474;19.056;2023-02-18T05:17:16;2.97;;;1.25;;
58768;SDS011;44536;47.474;19.056;2023-02-18T05:20:19;2.45;;;0.98;;
58768;SDS011;44536;47.474;19.056;2023-02-18T05:23:21;2.30;;;1.15;;
58768;SDS011;44536;47.474;19.056;2023-02-18T05:26:23;4.65;;;1.87;;
58768;SDS011;44536;47.474;19.056;2023-02-18T05:29:26;3.12;;;1.10;;
58768;SDS011;44536;47.474;19.056;2023-02-18T05:32:28;2.72;;;1.12;;
58768;SDS011;44536;47.474;19.056;2023-02-18T05:35:31;4.35;;;1.23;;
58768;SDS011;44536;47.474;19.056;2023-02-18T05:38:33;3.25;;;1.42;;
58768;SDS011;44536;47.474;19.056;2023-02-18T05:41:35;3.70;;;1.50;;
58768;SDS011;44536;47.474;19.056;2023-02-18T05:44:38;3.17;;;1.12;;
58768;SDS011;44536;47.474;19.056;2023-02-18T05:47:40;4.12;;;1.58;;
58768;SDS011;44536;47.474;19.056;2023-02-18T05:50:43;3.62;;;1.27;;
58768;SDS011;44536;47.474;19.056;2023-02-18T05:53:45;1.65;;;0.85;;
58768;SDS011;44536;47.474;19.056;2023-02-18T05:56:48;3.17;;;1.27;;
58768;SDS011;44536;47.474;19.056;2023-02-18T05:59:50;3.83;;;1.30;;
58768;SDS011;44536;47.474;19.056;2023-02-18T06:02:52;3.00;;;0.93;;
58768;SDS011;44536;47.474;19.056;2023-02-18T06:05:55;3.22;;;1.17;;
58768;SDS011;44536;47.474;19.056;2023-02-18T06:08:57;3.10;;;0.90;;
58768;SDS011;44536;47.474;19.056;2023-02-18T06:12:00;4.07;;;1.90;;
58768;SDS011;44536;47.474;19.056;2023-02-18T06:15:02;3.25;;;1.00;;
58768;SDS011;44536;47.474;19.056;2023-02-18T06:18:06;2.95;;;0.95;;
58768;SDS011;44536;47.474;19.056;2023-02-18T06:21:08;1.98;;;0.80;;
58768;SDS011;44536;47.474;19.056;2023-02-18T06:24:11;2.47;;;1.12;;
58768;SDS011;44536;47.474;19.056;2023-02-18T06:27:13;2.00;;;0.88;;
58768;SDS011;44536;47.474;19.056;2023-02-18T06:30:15;2.58;;;0.55;;
58768;SDS011;44536;47.474;19.056;2023-02-18T06:33:18;1.75;;;0.60;;
58768;SDS011;44536;47.474;19.056;2023-02-18T06:36:20;2.55;;;0.73;;
58768;SDS011;44536;47.474;19.056;2023-02-18T06:39:23;3.97;;;2.80;;
58768;SDS011;44536;47.474;19.056;2023-02-18T06:42:25;3.20;;;1.05;;
58768;SDS011;44536;47.474;19.056;2023-02-18T06:45:27;1.10;;;0.77;;
58768;SDS011;44536;47.474;19.056;2023-02-18T06:48:30;3.80;;;1.08;;
58768;SDS011;44536;47.474;19.056;2023-02-18T06:51:32;2.28;;;0.80;;
58768;SDS011;44536;47.474;19.056;2023-02-18T06:54:35;3.50;;;0.90;;
58768;SDS011;44536;47.474;19.056;2023-02-18T06:57:37;1.08;;;0.57;;
58768;SDS011;44536;47.474;19.056;2023-02-18T07:00:40;2.28;;;0.73;;
58768;SDS011;44536;47.474;19.056;2023-02-18T07:03:43;2.37;;;1.00;;
58768;SDS011;44536;47.474;19.056;2023-02-18T07:06:45;2.75;;;0.90;;
58768;SDS011;44536;47.474;19.056;2023-02-18T07:09:48;1.30;;;0.73;;
58768;SDS011;44536;47.474;19.056;2023-02-18T07:12:50;2.50;;;1.05;;
58768;SDS011;44536;47.474;19.056;2023-02-18T07:15:52;2.67;;;1.00;;
58768;SDS011;44536;47.474;19.056;2023-02-18T07:18:55;2.53;;;1.05;;
58768;SDS011;44536;47.474;19.056;2023-02-18T07:21:57;2.83;;;0.95;;
58768;SDS011;44536;47.474;19.056;2023-02-18T07:24:59;2.97;;;1.20;;
58768;SDS011;44536;47.474;19.056;2023-02-18T07:28:02;2.70;;;1.05;;
58768;SDS011;44536;47.474;19.056;2023-02-18T07:31:05;4.33;;;1.40;;
58768;SDS011;44536;47.474;19.056;2023-02-18T07:34:08;2.53;;;1.33;;
58768;SDS011;44536;47.474;19.056;2023-02-18T07:37:10;3.10;;;1.25;;
58768;SDS011;44536;47.474;19.056;2023-02-18T07:40:14;3.47;;;1.03;;
58768;SDS011;44536;47.474;19.056;2023-02-18T07:43:19;3.67;;;1.48;;
58768;SDS011;44536;47.474;19.056;2023-02-18T07:46:22;3.75;;;1.35;;
58768;SDS011;44536;47.474;19.056;2023-02-18T07:49:24;3.53;;;1.02;;
58768;SDS011;44536;47.474;19.056;2023-02-18T07:52:27;2.28;;;0.90;;
58768;SDS011;44536;47.474;19.056;2023-02-18T07:55:29;1.83;;;0.77;;
58768;SDS011;44536;47.474;19.056;2023-02-18T07:58:51;3.65;;;1.12;;
58768;SDS011;44536;47.474;19.056;2023-02-18T08:01:53;1.70;;;0.70;;
58768;SDS011;44536;47.474;19.056;2023-02-18T08:04:56;2.17;;;0.90;;
58768;SDS011;44536;47.474;19.056;2023-02-18T08:07:58;2.03;;;0.90;;
58768;SDS011;44536;47.474;19.056;2023-02-18T08:11:01;4.75;;;1.25;;
58768;SDS011;44536;47.474;19.056;2023-02-18T08:14:17;2.53;;;0.98;;
58768;SDS011;44536;47.474;19.056;2023-02-18T08:17:20;4.00;;;1.25;;
58768;SDS011;44536;47.474;19.056;2023-02-18T08:20:22;1.92;;;0.95;;
58768;SDS011;44536;47.474;19.056;2023-02-18T08:23:25;3.70;;;0.77;;
58768;SDS011;44536;47.474;19.056;2023-02-18T08:26:27;2.83;;;1.08;;
58768;SDS011;44536;47.474;19.056;2023-02-18T08:29:30;3.00;;;0.97;;
58768;SDS011;44536;47.474;19.056;2023-02-18T08:32:32;2.00;;;0.68;;
58768;SDS011;44536;47.474;19.056;2023-02-18T08:35:35;1.77;;;0.67;;
58768;SDS011;44536;47.474;19.056;2023-02-18T08:38:37;1.80;;;0.62;;
58768;SDS011;44536;47.474;19.056;2023-02-18T08:41:40;2.92;;;1.00;;
58768;SDS011;44536;47.474;19.056;2023-02-18T08:44:42;2.60;;;1.05;;
58768;SDS011;44536;47.474;19.056;2023-02-18T08:47:45;2.27;;;0.80;;
58768;SDS011;44536;47.474;19.056;2023-02-18T08:51:11;3.50;;;0.80;;
58768;SDS011;44536;47.474;19.056;2023-02-18T08:54:15;1.95;;;0.80;;
58768;SDS011;44536;47.474;19.056;2023-02-18T08:57:18;2.58;;;1.10;;
58768;SDS011;44536;47.474;19.056;2023-02-18T09:00:21;2.28;;;0.85;;
58768;SDS011;44536;47.474;19.056;2023-02-18T09:03:23;1.67;;;0.80;;
58768;SDS011;44536;47.474;19.056;2023-02-18T09:06:28;2.33;;;1.00;;
58768;SDS011;44536;47.474;19.056;2023-02-18T09:09:30;2.00;;;0.73;;
58768;SDS011;44536;47.474;19.056;2023-02-18T09:12:33;4.03;;;1.10;;
58768;SDS011;44536;47.474;19.056;2023-02-18T09:15:35;3.07;;;1.03;;
58768;SDS011;44536;47.474;19.056;2023-02-18T09:18:38;3.85;;;1.10;;
58768;SDS011;44536;47.474;19.056;2023-02-18T09:21:40;2.42;;;0.90;;
58768;SDS011;44536;47.474;19.056;2023-02-18T09:24:43;2.67;;;0.83;;
58768;SDS011;44536;47.474;19.056;2023-02-18T09:27:45;2.00;;;1.00;;
58768;SDS011;44536;47.474;19.056;2023-02-18T09:30:48;2.97;;;0.88;;
58768;SDS011;44536;47.474;19.056;2023-02-18T09:33:54;2.55;;;1.17;;
58768;SDS011;44536;47.474;19.056;2023-02-18T09:37:02;3.20;;;1.12;;
58768;SDS011;44536;47.474;19.056;2023-02-18T09:40:04;1.90;;;0.75;;
58768;SDS011;44536;47.474;19.056;2023-02-18T09:43:10;2.30;;;0.88;;
58768;SDS011;44536;47.474;19.056;2023-02-18T09:46:33;3.67;;;1.00;;
58768;SDS011;44536;47.474;19.056;2023-02-18T09:49:40;3.40;;;1.40;;
58768;SDS011;44536;47.474;19.056;2023-02-18T09:52:48;3.17;;;1.10;;
58768;SDS011;44536;47.474;19.056;2023-02-18T09:55:53;4.32;;;1.30;;
58768;SDS011;44536;47.474;19.056;2023-02-18T09:58:58;2.37;;;1.02;;
58768;SDS011;44536;47.474;19.056;2023-02-18T10:02:08;2.37;;;0.88;;
58768;SDS011;44536;47.474;19.056;2023-02-18T10:05:18;2.90;;;1.10;;
58768;SDS011;44536;47.474;19.056;2023-02-18T10:08:42;2.67;;;1.10;;
58768;SDS011;44536;47.474;19.056;2023-02-18T10:15:22;1.98;;;0.80;;
58768;SDS011;44536;47.474;19.056;2023-02-18T10:18:32;4.40;;;1.17;;
58768;SDS011;44536;47.474;19.056;2023-02-18T10:21:40;2.08;;;0.60;;
58768;SDS011;44536;47.474;19.056;2023-02-18T10:24:56;1.70;;;0.80;;
58768;SDS011;44536;47.474;19.056;2023-02-18T10:28:01;1.67;;;0.75;;
58768;SDS011;44536;47.474;19.056;2023-02-18T10:31:06;2.47;;;0.80;;
58768;SDS011;44536;47.474;19.056;2023-02-18T10:35:00;0.98;;;0.45;;
58768;SDS011;44536;47.474;19.056;2023-02-18T10:40:58;2.00;;;0.60;;
58768;SDS011;44536;47.474;19.056;2023-02-18T10:44:21;2.10;;;0.75;;
58768;SDS011;44536;47.474;19.056;2023-02-18T10:47:38;1.15;;;0.62;;
58768;SDS011;44536;47.474;19.056;2023-02-18T10:50:46;2.17;;;0.90;;
58768;SDS011;44536;47.474;19.056;2023-02-18T10:53:50;0.93;;;0.57;;
58768;SDS011;44536;47.474;19.056;2023-02-18T10:56:58;2.10;;;0.85;;
58768;SDS011;44536;47.474;19.056;2023-02-18T11:00:03;1.70;;;0.60;;
58768;SDS011;44536;47.474;19.056;2023-02-18T11:03:19;1.23;;;0.60;;
58768;SDS011;44536;47.474;19.056;2023-02-18T11:06:43;3.08;;;0.90;;
58768;SDS011;44536;47.474;19.056;2023-02-18T11:09:51;1.48;;;0.62;;
58768;SDS011;44536;47.474;19.056;2023-02-18T11:12:58;1.50;;;0.60;;
58768;SDS011;44536;47.474;19.056;2023-02-18T11:16:04;4.28;;;0.52;;
58768;SDS011;44536;47.474;19.056;2023-02-18T11:19:30;1.37;;;0.77;;
58768;SDS011;44536;47.474;19.056;2023-02-18T11:22:35;2.35;;;0.85;;
58768;SDS011;44536;47.474;19.056;2023-02-18T11:25:51;2.83;;;0.90;;
58768;SDS011;44536;47.474;19.056;2023-02-18T11:29:32;3.30;;;0.90;;
58768;SDS011;44536;47.474;19.056;2023-02-18T11:32:28;1.55;;;0.90;;
58768;SDS011;44536;47.474;19.056;2023-02-18T11:35:32;2.05;;;1.17;;
58768;SDS011;44536;47.474;19.056;2023-02-18T11:38:36;1.75;;;0.82;;
58768;SDS011;44536;47.474;19.056;2023-02-18T11:41:52;2.78;;;1.00;;
58768;SDS011;44536;47.474;19.056;2023-02-18T11:44:58;3.00;;;1.30;;
58768;SDS011;44536;47.474;19.056;2023-02-18T11:48:15;3.33;;;1.50;;
58768;SDS011;44536;47.474;19.056;2023-02-18T11:51:21;4.30;;;1.73;;
58768;SDS011;44536;47.474;19.056;2023-02-18T11:54:27;2.62;;;1.20;;
58768;SDS011;44536;47.474;19.056;2023-02-18T11:57:31;5.15;;;1.67;;
58768;SDS011;44536;47.474;19.056;2023-02-18T12:00:41;3.35;;;1.30;;
58768;SDS011;44536;47.474;19.056;2023-02-18T12:04:11;3.50;;;1.10;;
58768;SDS011;44536;47.474;19.056;2023-02-18T12:07:24;3.42;;;1.45;;
58768;SDS011;44536;47.474;19.056;2023-02-18T12:10:40;2.95;;;1.30;;
58768;SDS011;44536;47.474;19.056;2023-02-18T12:13:49;3.55;;;1.50;;
58768;SDS011;44536;47.474;19.056;2023-02-18T12:20:48;4.93;;;2.17;;
58768;SDS011;44536;47.474;19.056;2023-02-18T12:24:26;4.28;;;1.65;;
58768;SDS011;44536;47.474;19.056;2023-02-18T12:27:40;2.70;;;1.23;;
58768;SDS011;44536;47.474;19.056;2023-02-18T12:31:05;2.67;;;1.05;;
58768;SDS011;44536;47.474;19.056;2023-02-18T12:40:38;4.00;;;1.52;;
58768;SDS011;44536;47.474;19.056;2023-02-18T12:43:52;3.70;;;0.80;;
58768;SDS011;44536;47.474;19.056;2023-02-18T12:57:12;3.03;;;0.98;;
58768;SDS011;44536;47.474;19.056;2023-02-18T13:07:24;2.80;;;1.02;;
58768;SDS011;44536;47.474;19.056;2023-02-18T13:14:15;1.67;;;0.45;;
58768;SDS011;44536;47.474;19.056;2023-02-18T13:17:18;1.75;;;0.65;;
58768;SDS011;44536;47.474;19.056;2023-02-18T13:20:33;1.25;;;0.52;;
58768;SDS011;44536;47.474;19.056;2023-02-18T13:30:22;1.15;;;0.55;;
58768;SDS011;44536;47.474;19.056;2023-02-18T13:40:29;1.90;;;0.75;;
58768;SDS011;44536;47.474;19.056;2023-02-18T13:43:33;0.60;;;0.30;;
58768;SDS011;44536;47.474;19.056;2023-02-18T13:46:46;2.17;;;0.77;;
58768;SDS011;44536;47.474;19.056;2023-02-18T13:49:54;1.62;;;0.47;;
58768;SDS011;44536;47.474;19.056;2023-02-18T13:56:29;2.53;;;0.43;;
58768;SDS011;44536;47.474;19.056;2023-02-18T14:02:54;1.62;;;0.55;;
58768;SDS011;44536;47.474;19.056;2023-02-18T14:06:00;2.22;;;0.70;;
58768;SDS011;44536;47.474;19.056;2023-02-18T14:15:56;1.30;;;0.40;;
58768;SDS011;44536;47.474;19.056;2023-02-18T14:19:02;1.60;;;0.50;;
58768;SDS011;44536;47.474;19.056;2023-02-18T14:25:34;1.52;;;0.50;;
58768;SDS011;44536;47.474;19.056;2023-02-18T14:31:51;1.98;;;0.68;;
58768;SDS011;44536;47.474;19.056;2023-02-18T14:35:07;2.30;;;0.65;;
58768;SDS011;44536;47.474;19.056;2023-02-18T14:41:54;1.92;;;0.60;;
58768;SDS011;44536;47.474;19.056;2023-02-18T14:52:00;2.62;;;0.57;;
58768;SDS011;44536;47.474;19.056;2023-02-18T14:55:05;1.40;;;0.98;;
58768;SDS011;44536;47.474;19.056;2023-02-18T15:01:37;19.58;;;11.93;;
58768;SDS011;44536;47.474;19.056;2023-02-18T15:04:41;27.23;;;15.63;;
58768;SDS011;44536;47.474;19.056;2023-02-18T15:11:05;27.48;;;12.65;;
58768;SDS011;44536;47.474;19.056;2023-02-18T15:14:09;22.62;;;13.15;;
58768;SDS011;44536;47.474;19.056;2023-02-18T15:17:20;24.75;;;14.73;;
58768;SDS011;44536;47.474;19.056;2023-02-18T15:20:26;27.02;;;14.82;;
58768;SDS011;44536;47.474;19.056;2023-02-18T15:23:30;30.65;;;15.13;;
58768;SDS011;44536;47.474;19.056;2023-02-18T15:26:40;30.00;;;14.57;;
58768;SDS011;44536;47.474;19.056;2023-02-18T15:29:48;26.65;;;14.60;;
58768;SDS011;44536;47.474;19.056;2023-02-18T15:32:53;33.05;;;17.58;;
58768;SDS011;44536;47.474;19.056;2023-02-18T15:36:04;30.88;;;16.17;;
58768;SDS011;44536;47.474;19.056;2023-02-18T15:39:07;28.05;;;16.92;;
58768;SDS011;44536;47.474;19.056;2023-02-18T15:42:30;37.50;;;17.77;;
58768;SDS011;44536;47.474;19.056;2023-02-18T15:45:38;34.75;;;19.12;;
58768;SDS011;44536;47.474;19.056;2023-02-18T15:48:47;32.00;;;19.30;;
58768;SDS011;44536;47.474;19.056;2023-02-18T15:51:54;34.28;;;20.73;;
58768;SDS011;44536;47.474;19.056;2023-02-18T15:55:00;40.63;;;20.23;;
58768;SDS011;44536;47.474;19.056;2023-02-18T16:01:31;37.55;;;21.02;;
58768;SDS011;44536;47.474;19.056;2023-02-18T16:04:38;38.17;;;18.83;;
58768;SDS011;44536;47.474;19.056;2023-02-18T16:07:55;45.92;;;23.25;;
58768;SDS011;44536;47.474;19.056;2023-02-18T16:11:02;37.85;;;19.50;;
58768;SDS011;44536;47.474;19.056;2023-02-18T16:14:28;37.60;;;20.90;;
58768;SDS011;44536;47.474;19.056;2023-02-18T16:17:33;41.53;;;19.33;;
58768;SDS011;44536;47.474;19.056;2023-02-18T16:20:36;38.97;;;20.42;;
58768;SDS011;44536;47.474;19.056;2023-02-18T16:23:40;41.47;;;21.02;;
58768;SDS011;44536;47.474;19.056;2023-02-18T16:27:00;35.65;;;20.37;;
58768;SDS011;44536;47.474;19.056;2023-02-18T16:30:14;49.90;;;24.67;;
58768;SDS011;44536;47.474;19.056;2023-02-18T16:33:19;44.40;;;22.17;;
58768;SDS011;44536;47.474;19.056;2023-02-18T16:36:22;42.30;;;23.40;;
58768;SDS011;44536;47.474;19.056;2023-02-18T16:39:25;38.10;;;20.25;;
58768;SDS011;44536;47.474;19.056;2023-02-18T16:42:30;43.53;;;24.05;;
58768;SDS011;44536;47.474;19.056;2023-02-18T16:45:36;42.53;;;22.58;;
58768;SDS011;44536;47.474;19.056;2023-02-18T16:48:42;38.85;;;23.10;;
58768;SDS011;44536;47.474;19.056;2023-02-18T16:51:47;38.20;;;21.60;;
58768;SDS011;44536;47.474;19.056;2023-02-18T16:54:50;37.63;;;20.95;;
58768;SDS011;44536;47.474;19.056;2023-02-18T16:57:54;44.28;;;24.80;;
58768;SDS011;44536;47.474;19.056;2023-02-18T17:00:56;41.07;;;23.20;;
58768;SDS011;44536;47.474;19.056;2023-02-18T17:04:00;42.60;;;24.17;;
58768;SDS011;44536;47.474;19.056;2023-02-18T17:07:07;41.78;;;22.55;;
58768;SDS011;44536;47.474;19.056;2023-02-18T17:10:11;39.92;;;22.67;;
58768;SDS011;44536;47.474;19.056;2023-02-18T17:13:15;46.25;;;24.52;;
58768;SDS011;44536;47.474;19.056;2023-02-18T17:16:22;41.35;;;23.42;;
58768;SDS011;44536;47.474;19.056;2023-02-18T17:19:25;37.00;;;22.58;;
58768;SDS011;44536;47.474;19.056;2023-02-18T17:22:27;53.20;;;24.42;;
58768;SDS011;44536;47.474;19.056;2023-02-18T17:25:31;48.58;;;23.42;;
58768;SDS011;44536;47.474;19.056;2023-02-18T17:28:37;40.17;;;24.12;;
58768;SDS011;44536;47.474;19.056;2023-02-18T17:31:40;45.63;;;24.50;;
58768;SDS011;44536;47.474;19.056;2023-02-18T17:34:45;42.53;;;24.67;;
58768;SDS011;44536;47.474;19.056;2023-02-18T17:37:49;42.67;;;24.35;;
58768;SDS011;44536;47.474;19.056;2023-02-18T17:40:51;44.33;;;25.30;;
58768;SDS011;44536;47.474;19.056;2023-02-18T17:43:54;48.00;;;26.27;;
58768;SDS011;44536;47.474;19.056;2023-02-18T17:46:56;42.00;;;24.75;;
58768;SDS011;44536;47.474;19.056;2023-02-18T17:49:58;44.92;;;25.17;;
58768;SDS011;44536;47.474;19.056;2023-02-18T17:53:00;49.80;;;24.08;;
58768;SDS011;44536;47.474;19.056;2023-02-18T17:56:03;42.47;;;23.55;;
58768;SDS011;44536;47.474;19.056;2023-02-18T17:59:05;43.08;;;23.58;;
58768;SDS011;44536;47.474;19.056;2023-02-18T18:02:13;47.23;;;23.10;;
58768;SDS011;44536;47.474;19.056;2023-02-18T18:05:28;46.70;;;24.80;;
58768;SDS011;44536;47.474;19.056;2023-02-18T18:08:33;47.25;;;24.67;;
58768;SDS011;44536;47.474;19.056;2023-02-18T18:11:35;40.03;;;24.20;;
58768;SDS011;44536;47.474;19.056;2023-02-18T18:14:38;44.42;;;27.48;;
58768;SDS011;44536;47.474;19.056;2023-02-18T18:17:40;45.20;;;24.25;;
58768;SDS011;44536;47.474;19.056;2023-02-18T18:20:44;46.25;;;25.65;;
58768;SDS011;44536;47.474;19.056;2023-02-18T18:23:48;46.50;;;25.88;;
58768;SDS011;44536;47.474;19.056;2023-02-18T18:26:51;52.30;;;26.60;;
58768;SDS011;44536;47.474;19.056;2023-02-18T18:29:54;41.73;;;24.43;;
58768;SDS011;44536;47.474;19.056;2023-02-18T18:32:56;51.65;;;23.80;;
58768;SDS011;44536;47.474;19.056;2023-02-18T18:36:00;45.05;;;22.85;;
58768;SDS011;44536;47.474;19.056;2023-02-18T18:39:02;42.93;;;23.37;;
58768;SDS011;44536;47.474;19.056;2023-02-18T18:42:05;48.25;;;23.73;;
58768;SDS011;44536;47.474;19.056;2023-02-18T18:45:16;45.03;;;25.50;;
58768;SDS011;44536;47.474;19.056;2023-02-18T18:48:21;44.43;;;23.97;;
58768;SDS011;44536;47.474;19.056;2023-02-18T18:51:26;47.50;;;24.17;;
58768;SDS011;44536;47.474;19.056;2023-02-18T18:54:31;40.15;;;24.00;;
58768;SDS011;44536;47.474;19.056;2023-02-18T18:57:34;48.30;;;25.70;;
58768;SDS011;44536;47.474;19.056;2023-02-18T19:00:40;46.97;;;24.73;;
58768;SDS011;44536;47.474;19.056;2023-02-18T19:03:44;38.28;;;23.58;;
58768;SDS011;44536;47.474;19.056;2023-02-18T19:09:49;35.13;;;21.67;;
58768;SDS011;44536;47.474;19.056;2023-02-18T19:12:52;53.22;;;25.00;;
58768;SDS011;44536;47.474;19.056;2023-02-18T19:16:00;40.33;;;21.70;;
58768;SDS011;44536;47.474;19.056;2023-02-18T19:19:09;44.30;;;25.62;;
58768;SDS011;44536;47.474;19.056;2023-02-18T19:22:13;41.53;;;21.92;;
58768;SDS011;44536;47.474;19.056;2023-02-18T19:25:16;40.78;;;23.50;;
58768;SDS011;44536;47.474;19.056;2023-02-18T19:28:20;43.47;;;23.87;;
58768;SDS011;44536;47.474;19.056;2023-02-18T19:31:23;38.88;;;22.23;;
58768;SDS011;44536;47.474;19.056;2023-02-18T19:34:25;39.47;;;21.47;;
58768;SDS011;44536;47.474;19.056;2023-02-18T19:37:34;38.10;;;22.95;;
58768;SDS011;44536;47.474;19.056;2023-02-18T19:40:39;41.95;;;22.27;;
58768;SDS011;44536;47.474;19.056;2023-02-18T19:43:42;43.85;;;24.55;;
58768;SDS011;44536;47.474;19.056;2023-02-18T19:46:45;40.83;;;21.77;;
58768;SDS011;44536;47.474;19.056;2023-02-18T19:49:48;40.75;;;22.02;;
58768;SDS011;44536;47.474;19.056;2023-02-18T19:52:51;39.78;;;22.95;;
58768;SDS011;44536;47.474;19.056;2023-02-18T19:55:55;42.97;;;22.67;;
58768;SDS011;44536;47.474;19.056;2023-02-18T19:59:03;44.17;;;22.45;;
58768;SDS011;44536;47.474;19.056;2023-02-18T20:02:06;48.28;;;24.35;;
58768;SDS011;44536;47.474;19.056;2023-02-18T20:05:09;43.28;;;22.00;;
58768;SDS011;44536;47.474;19.056;2023-02-18T20:08:13;47.30;;;24.73;;
58768;SDS011;44536;47.474;19.056;2023-02-18T20:11:15;50.12;;;27.02;;
58768;SDS011;44536;47.474;19.056;2023-02-18T20:14:18;47.88;;;26.62;;
58768;SDS011;44536;47.474;19.056;2023-02-18T20:17:21;54.90;;;30.27;;
58768;SDS011;44536;47.474;19.056;2023-02-18T20:20:23;55.08;;;30.33;;
58768;SDS011;44536;47.474;19.056;2023-02-18T20:23:28;47.15;;;28.67;;
58768;SDS011;44536;47.474;19.056;2023-02-18T20:26:30;47.80;;;27.35;;
58768;SDS011;44536;47.474;19.056;2023-02-18T20:29:32;50.97;;;28.00;;
58768;SDS011;44536;47.474;19.056;2023-02-18T20:32:35;49.33;;;28.55;;